sensor_id;sensor_type;location;lat;lon;timestamp;P1;durP1;ratioP1;P2;durP2;ratioP2
81254;SDS011;70727;59.914;30.330;2023-12-14T00:01:15;5.63;;;2.72;;
81254;SDS011;70727;59.914;30.330;2023-12-14T00:03:41;5.43;;;2.22;;
81254;SDS011;70727;59.914;30.330;2023-12-14T00:06:08;5.50;;;2.38;;
81254;SDS011;70727;59.914;30.330;2023-12-14T00:08:33;7.40;;;3.13;;
81254;SDS011;70727;59.914;30.330;2023-12-14T00:11:09;4.78;;;2.85;;
81254;SDS011;70727;59.914;30.330;2023-12-14T00:13:35;8.07;;;3.13;;
81254;SDS011;70727;59.914;30.330;2023-12-14T00:16:01;4.20;;;2.13;;
81254;SDS011;70727;59.914;30.330;2023-12-14T00:18:27;3.83;;;1.80;;
81254;SDS011;70727;59.914;30.330;2023-12-14T00:20:53;6.35;;;3.03;;
81254;SDS011;70727;59.914;30.330;2023-12-14T00:23:24;3.72;;;1.70;;
81254;SDS011;70727;59.914;30.330;2023-12-14T00:25:50;5.95;;;2.75;;
81254;SDS011;70727;59.914;30.330;2023-12-14T00:28:16;2.45;;;1.40;;
81254;SDS011;70727;59.914;30.330;2023-12-14T00:30:42;3.25;;;1.92;;
81254;SDS011;70727;59.914;30.330;2023-12-14T00:33:08;3.28;;;1.63;;
81254;SDS011;70727;59.914;30.330;2023-12-14T00:35:34;4.40;;;2.00;;
81254;SDS011;70727;59.914;30.330;2023-12-14T00:37:59;5.50;;;2.22;;
81254;SDS011;70727;59.914;30.330;2023-12-14T00:40:25;5.47;;;1.95;;
81254;SDS011;70727;59.914;30.330;2023-12-14T00:42:51;5.43;;;2.08;;
81254;SDS011;70727;59.914;30.330;2023-12-14T00:45:17;5.82;;;2.22;;
81254;SDS011;70727;59.914;30.330;2023-12-14T00:47:42;4.00;;;2.63;;
81254;SDS011;70727;59.914;30.330;2023-12-14T00:50:08;4.55;;;1.63;;
81254;SDS011;70727;59.914;30.330;2023-12-14T00:52:34;3.15;;;1.70;;
81254;SDS011;70727;59.914;30.330;2023-12-14T00:55:00;4.00;;;1.92;;
81254;SDS011;70727;59.914;30.330;2023-12-14T00:57:26;2.72;;;1.58;;
81254;SDS011;70727;59.914;30.330;2023-12-14T00:59:51;4.88;;;2.35;;
81254;SDS011;70727;59.914;30.330;2023-12-14T01:02:17;6.10;;;1.90;;
81254;SDS011;70727;59.914;30.330;2023-12-14T01:04:43;3.78;;;2.08;;
81254;SDS011;70727;59.914;30.330;2023-12-14T01:07:09;4.60;;;2.03;;
81254;SDS011;70727;59.914;30.330;2023-12-14T01:09:35;5.30;;;2.35;;
81254;SDS011;70727;59.914;30.330;2023-12-14T01:12:00;3.63;;;1.67;;
81254;SDS011;70727;59.914;30.330;2023-12-14T01:14:26;4.10;;;1.95;;
81254;SDS011;70727;59.914;30.330;2023-12-14T01:16:52;4.25;;;1.58;;
81254;SDS011;70727;59.914;30.330;2023-12-14T01:19:18;3.90;;;1.88;;
81254;SDS011;70727;59.914;30.330;2023-12-14T01:21:44;5.80;;;1.98;;
81254;SDS011;70727;59.914;30.330;2023-12-14T01:24:09;4.55;;;2.10;;
81254;SDS011;70727;59.914;30.330;2023-12-14T01:26:36;4.65;;;2.20;;
81254;SDS011;70727;59.914;30.330;2023-12-14T01:29:01;2.63;;;1.58;;
81254;SDS011;70727;59.914;30.330;2023-12-14T01:31:27;3.40;;;2.05;;
81254;SDS011;70727;59.914;30.330;2023-12-14T01:33:53;5.85;;;2.53;;
81254;SDS011;70727;59.914;30.330;2023-12-14T01:36:22;5.55;;;2.45;;
81254;SDS011;70727;59.914;30.330;2023-12-14T01:38:48;4.65;;;2.40;;
81254;SDS011;70727;59.914;30.330;2023-12-14T01:41:14;5.53;;;2.00;;
81254;SDS011;70727;59.914;30.330;2023-12-14T01:43:40;4.28;;;1.88;;
81254;SDS011;70727;59.914;30.330;2023-12-14T01:46:05;4.95;;;2.38;;
81254;SDS011;70727;59.914;30.330;2023-12-14T01:48:31;4.85;;;2.08;;
81254;SDS011;70727;59.914;30.330;2023-12-14T01:50:57;4.82;;;2.17;;
81254;SDS011;70727;59.914;30.330;2023-12-14T01:53:23;3.50;;;1.90;;
81254;SDS011;70727;59.914;30.330;2023-12-14T01:55:48;4.53;;;1.95;;
81254;SDS011;70727;59.914;30.330;2023-12-14T01:58:14;3.05;;;1.90;;
81254;SDS011;70727;59.914;30.330;2023-12-14T02:00:49;3.10;;;1.83;;
81254;SDS011;70727;59.914;30.330;2023-12-14T02:03:16;4.40;;;2.47;;
81254;SDS011;70727;59.914;30.330;2023-12-14T02:05:42;4.85;;;2.22;;
81254;SDS011;70727;59.914;30.330;2023-12-14T02:08:08;6.30;;;2.90;;
81254;SDS011;70727;59.914;30.330;2023-12-14T02:10:34;5.00;;;2.45;;
81254;SDS011;70727;59.914;30.330;2023-12-14T02:13:03;5.95;;;2.25;;
81254;SDS011;70727;59.914;30.330;2023-12-14T02:15:29;4.50;;;2.15;;
81254;SDS011;70727;59.914;30.330;2023-12-14T02:17:55;5.10;;;2.45;;
81254;SDS011;70727;59.914;30.330;2023-12-14T02:20:20;4.28;;;2.35;;
81254;SDS011;70727;59.914;30.330;2023-12-14T02:25:16;5.03;;;2.25;;
81254;SDS011;70727;59.914;30.330;2023-12-14T02:27:41;4.95;;;2.63;;
81254;SDS011;70727;59.914;30.330;2023-12-14T02:30:08;4.18;;;1.83;;
81254;SDS011;70727;59.914;30.330;2023-12-14T02:32:34;4.30;;;1.60;;
81254;SDS011;70727;59.914;30.330;2023-12-14T02:34:59;5.35;;;2.28;;
81254;SDS011;70727;59.914;30.330;2023-12-14T02:37:25;4.68;;;2.35;;
81254;SDS011;70727;59.914;30.330;2023-12-14T02:39:51;4.82;;;2.03;;
81254;SDS011;70727;59.914;30.330;2023-12-14T02:42:16;6.93;;;2.53;;
81254;SDS011;70727;59.914;30.330;2023-12-14T02:44:42;5.90;;;1.83;;
81254;SDS011;70727;59.914;30.330;2023-12-14T02:47:08;3.85;;;2.08;;
81254;SDS011;70727;59.914;30.330;2023-12-14T02:49:34;6.03;;;2.05;;
81254;SDS011;70727;59.914;30.330;2023-12-14T02:52:00;4.55;;;1.70;;
81254;SDS011;70727;59.914;30.330;2023-12-14T02:54:25;3.20;;;1.77;;
81254;SDS011;70727;59.914;30.330;2023-12-14T02:56:51;7.70;;;2.70;;
81254;SDS011;70727;59.914;30.330;2023-12-14T02:59:17;10.02;;;2.58;;
81254;SDS011;70727;59.914;30.330;2023-12-14T03:01:42;4.18;;;2.28;;
81254;SDS011;70727;59.914;30.330;2023-12-14T03:04:08;5.80;;;2.65;;
81254;SDS011;70727;59.914;30.330;2023-12-14T03:06:34;5.68;;;1.65;;
81254;SDS011;70727;59.914;30.330;2023-12-14T03:09:00;4.97;;;2.00;;
81254;SDS011;70727;59.914;30.330;2023-12-14T03:11:26;4.63;;;2.05;;
81254;SDS011;70727;59.914;30.330;2023-12-14T03:13:52;5.82;;;1.90;;
81254;SDS011;70727;59.914;30.330;2023-12-14T03:16:18;6.35;;;2.00;;
81254;SDS011;70727;59.914;30.330;2023-12-14T03:18:44;6.10;;;2.05;;
81254;SDS011;70727;59.914;30.330;2023-12-14T03:21:10;5.47;;;2.03;;
81254;SDS011;70727;59.914;30.330;2023-12-14T03:23:36;8.10;;;2.47;;
81254;SDS011;70727;59.914;30.330;2023-12-14T03:26:01;5.38;;;1.83;;
81254;SDS011;70727;59.914;30.330;2023-12-14T03:28:27;4.32;;;1.67;;
81254;SDS011;70727;59.914;30.330;2023-12-14T03:30:53;4.53;;;1.92;;
81254;SDS011;70727;59.914;30.330;2023-12-14T03:33:19;6.50;;;2.05;;
81254;SDS011;70727;59.914;30.330;2023-12-14T03:35:45;6.30;;;2.15;;
81254;SDS011;70727;59.914;30.330;2023-12-14T03:38:14;8.85;;;2.92;;
81254;SDS011;70727;59.914;30.330;2023-12-14T03:40:40;4.05;;;2.15;;
81254;SDS011;70727;59.914;30.330;2023-12-14T03:43:06;6.95;;;2.00;;
81254;SDS011;70727;59.914;30.330;2023-12-14T03:45:32;6.40;;;2.55;;
81254;SDS011;70727;59.914;30.330;2023-12-14T03:47:57;8.68;;;2.33;;
81254;SDS011;70727;59.914;30.330;2023-12-14T03:50:23;6.47;;;2.30;;
81254;SDS011;70727;59.914;30.330;2023-12-14T03:52:49;6.90;;;1.98;;
81254;SDS011;70727;59.914;30.330;2023-12-14T03:55:15;6.13;;;2.17;;
81254;SDS011;70727;59.914;30.330;2023-12-14T03:57:41;5.63;;;1.65;;
81254;SDS011;70727;59.914;30.330;2023-12-14T04:00:09;7.20;;;2.05;;
81254;SDS011;70727;59.914;30.330;2023-12-14T04:02:35;5.55;;;2.45;;
81254;SDS011;70727;59.914;30.330;2023-12-14T04:05:01;7.28;;;2.33;;
81254;SDS011;70727;59.914;30.330;2023-12-14T04:07:27;7.47;;;2.42;;
81254;SDS011;70727;59.914;30.330;2023-12-14T04:09:53;6.05;;;2.50;;
81254;SDS011;70727;59.914;30.330;2023-12-14T04:12:18;5.47;;;2.50;;
81254;SDS011;70727;59.914;30.330;2023-12-14T04:14:44;5.88;;;2.30;;
81254;SDS011;70727;59.914;30.330;2023-12-14T04:17:10;5.80;;;2.30;;
81254;SDS011;70727;59.914;30.330;2023-12-14T04:19:40;8.50;;;2.22;;
81254;SDS011;70727;59.914;30.330;2023-12-14T04:22:05;4.85;;;1.90;;
81254;SDS011;70727;59.914;30.330;2023-12-14T04:24:31;5.97;;;2.22;;
81254;SDS011;70727;59.914;30.330;2023-12-14T04:26:58;6.50;;;2.17;;
81254;SDS011;70727;59.914;30.330;2023-12-14T04:29:23;6.07;;;2.25;;
81254;SDS011;70727;59.914;30.330;2023-12-14T04:31:49;4.55;;;1.92;;
81254;SDS011;70727;59.914;30.330;2023-12-14T04:34:15;7.53;;;2.47;;
81254;SDS011;70727;59.914;30.330;2023-12-14T04:36:47;5.97;;;2.03;;
81254;SDS011;70727;59.914;30.330;2023-12-14T04:39:13;4.30;;;1.95;;
81254;SDS011;70727;59.914;30.330;2023-12-14T04:41:39;7.45;;;2.35;;
81254;SDS011;70727;59.914;30.330;2023-12-14T04:44:05;6.38;;;2.40;;
81254;SDS011;70727;59.914;30.330;2023-12-14T04:46:30;6.22;;;2.13;;
81254;SDS011;70727;59.914;30.330;2023-12-14T04:48:56;4.78;;;1.85;;
81254;SDS011;70727;59.914;30.330;2023-12-14T04:51:22;6.72;;;1.75;;
81254;SDS011;70727;59.914;30.330;2023-12-14T04:53:48;5.65;;;2.45;;
81254;SDS011;70727;59.914;30.330;2023-12-14T04:56:14;7.30;;;2.13;;
81254;SDS011;70727;59.914;30.330;2023-12-14T04:58:39;6.47;;;2.17;;
81254;SDS011;70727;59.914;30.330;2023-12-14T05:01:06;8.30;;;2.15;;
81254;SDS011;70727;59.914;30.330;2023-12-14T05:03:35;5.45;;;2.15;;
81254;SDS011;70727;59.914;30.330;2023-12-14T05:06:01;4.55;;;2.08;;
81254;SDS011;70727;59.914;30.330;2023-12-14T05:08:27;6.15;;;2.38;;
81254;SDS011;70727;59.914;30.330;2023-12-14T05:10:53;6.70;;;2.10;;
81254;SDS011;70727;59.914;30.330;2023-12-14T05:13:18;5.40;;;2.15;;
81254;SDS011;70727;59.914;30.330;2023-12-14T05:15:44;5.50;;;1.92;;
81254;SDS011;70727;59.914;30.330;2023-12-14T05:18:10;6.25;;;1.98;;
81254;SDS011;70727;59.914;30.330;2023-12-14T05:20:35;6.95;;;2.22;;
81254;SDS011;70727;59.914;30.330;2023-12-14T05:23:01;4.57;;;1.98;;
81254;SDS011;70727;59.914;30.330;2023-12-14T05:25:27;5.45;;;2.20;;
81254;SDS011;70727;59.914;30.330;2023-12-14T05:27:53;7.10;;;2.05;;
81254;SDS011;70727;59.914;30.330;2023-12-14T05:30:19;5.82;;;1.88;;
81254;SDS011;70727;59.914;30.330;2023-12-14T05:32:45;9.30;;;3.67;;
81254;SDS011;70727;59.914;30.330;2023-12-14T05:35:11;6.95;;;3.03;;
81254;SDS011;70727;59.914;30.330;2023-12-14T05:37:38;6.53;;;2.13;;
81254;SDS011;70727;59.914;30.330;2023-12-14T05:40:04;5.82;;;2.33;;
81254;SDS011;70727;59.914;30.330;2023-12-14T05:42:30;6.55;;;2.25;;
81254;SDS011;70727;59.914;30.330;2023-12-14T05:44:56;9.30;;;2.80;;
81254;SDS011;70727;59.914;30.330;2023-12-14T05:47:21;8.23;;;2.42;;
81254;SDS011;70727;59.914;30.330;2023-12-14T05:49:47;11.07;;;3.22;;
81254;SDS011;70727;59.914;30.330;2023-12-14T05:52:14;6.75;;;3.22;;
81254;SDS011;70727;59.914;30.330;2023-12-14T05:54:39;6.85;;;2.53;;
81254;SDS011;70727;59.914;30.330;2023-12-14T05:57:05;8.05;;;2.88;;
81254;SDS011;70727;59.914;30.330;2023-12-14T05:59:31;7.68;;;2.63;;
81254;SDS011;70727;59.914;30.330;2023-12-14T06:01:57;6.40;;;2.08;;
81254;SDS011;70727;59.914;30.330;2023-12-14T06:04:24;9.35;;;3.20;;
81254;SDS011;70727;59.914;30.330;2023-12-14T06:06:50;7.95;;;2.30;;
81254;SDS011;70727;59.914;30.330;2023-12-14T06:09:15;5.93;;;2.65;;
81254;SDS011;70727;59.914;30.330;2023-12-14T06:11:43;11.85;;;3.35;;
81254;SDS011;70727;59.914;30.330;2023-12-14T06:14:09;7.93;;;2.85;;
81254;SDS011;70727;59.914;30.330;2023-12-14T06:16:35;5.47;;;2.88;;
81254;SDS011;70727;59.914;30.330;2023-12-14T06:19:00;8.30;;;3.40;;
81254;SDS011;70727;59.914;30.330;2023-12-14T06:21:26;8.27;;;2.95;;
81254;SDS011;70727;59.914;30.330;2023-12-14T06:23:55;10.70;;;4.07;;
81254;SDS011;70727;59.914;30.330;2023-12-14T06:26:21;11.88;;;3.63;;
81254;SDS011;70727;59.914;30.330;2023-12-14T06:28:47;8.02;;;3.47;;
81254;SDS011;70727;59.914;30.330;2023-12-14T06:31:13;10.25;;;3.70;;
81254;SDS011;70727;59.914;30.330;2023-12-14T06:33:39;8.52;;;4.15;;
81254;SDS011;70727;59.914;30.330;2023-12-14T06:36:06;9.57;;;3.55;;
81254;SDS011;70727;59.914;30.330;2023-12-14T06:38:32;9.68;;;4.22;;
81254;SDS011;70727;59.914;30.330;2023-12-14T06:40:57;9.90;;;4.00;;
81254;SDS011;70727;59.914;30.330;2023-12-14T06:43:23;8.63;;;3.58;;
81254;SDS011;70727;59.914;30.330;2023-12-14T06:45:49;11.63;;;4.93;;
81254;SDS011;70727;59.914;30.330;2023-12-14T06:48:15;10.07;;;4.78;;
81254;SDS011;70727;59.914;30.330;2023-12-14T06:50:41;8.20;;;4.25;;
81254;SDS011;70727;59.914;30.330;2023-12-14T06:53:06;10.57;;;4.22;;
81254;SDS011;70727;59.914;30.330;2023-12-14T06:55:32;11.90;;;4.63;;
81254;SDS011;70727;59.914;30.330;2023-12-14T06:57:58;13.43;;;4.57;;
81254;SDS011;70727;59.914;30.330;2023-12-14T07:00:24;9.05;;;3.63;;
81254;SDS011;70727;59.914;30.330;2023-12-14T07:02:50;9.55;;;3.67;;
81254;SDS011;70727;59.914;30.330;2023-12-14T07:05:15;10.38;;;4.20;;
81254;SDS011;70727;59.914;30.330;2023-12-14T07:07:41;12.15;;;3.97;;
81254;SDS011;70727;59.914;30.330;2023-12-14T07:10:07;12.43;;;4.72;;
81254;SDS011;70727;59.914;30.330;2023-12-14T07:12:33;10.95;;;4.03;;
81254;SDS011;70727;59.914;30.330;2023-12-14T07:14:59;10.27;;;3.85;;
81254;SDS011;70727;59.914;30.330;2023-12-14T07:17:24;10.70;;;4.50;;
81254;SDS011;70727;59.914;30.330;2023-12-14T07:19:51;9.93;;;4.43;;
81254;SDS011;70727;59.914;30.330;2023-12-14T07:22:16;13.32;;;4.57;;
81254;SDS011;70727;59.914;30.330;2023-12-14T07:24:44;10.63;;;4.10;;
81254;SDS011;70727;59.914;30.330;2023-12-14T07:27:09;12.18;;;3.90;;
81254;SDS011;70727;59.914;30.330;2023-12-14T07:29:35;13.90;;;5.28;;
81254;SDS011;70727;59.914;30.330;2023-12-14T07:32:01;13.18;;;4.93;;
81254;SDS011;70727;59.914;30.330;2023-12-14T07:34:26;14.57;;;5.60;;
81254;SDS011;70727;59.914;30.330;2023-12-14T07:36:54;10.23;;;5.03;;
81254;SDS011;70727;59.914;30.330;2023-12-14T07:39:19;11.25;;;4.55;;
81254;SDS011;70727;59.914;30.330;2023-12-14T07:41:45;11.57;;;4.35;;
81254;SDS011;70727;59.914;30.330;2023-12-14T07:44:11;12.68;;;4.70;;
81254;SDS011;70727;59.914;30.330;2023-12-14T07:46:37;16.17;;;5.78;;
81254;SDS011;70727;59.914;30.330;2023-12-14T07:49:07;10.65;;;4.00;;
81254;SDS011;70727;59.914;30.330;2023-12-14T07:51:32;12.20;;;4.25;;
81254;SDS011;70727;59.914;30.330;2023-12-14T07:53:58;11.93;;;5.25;;
81254;SDS011;70727;59.914;30.330;2023-12-14T07:56:24;11.23;;;4.93;;
81254;SDS011;70727;59.914;30.330;2023-12-14T07:58:53;13.02;;;4.72;;
81254;SDS011;70727;59.914;30.330;2023-12-14T08:01:19;15.27;;;4.85;;
81254;SDS011;70727;59.914;30.330;2023-12-14T08:03:46;10.48;;;5.20;;
81254;SDS011;70727;59.914;30.330;2023-12-14T08:06:12;12.13;;;4.57;;
81254;SDS011;70727;59.914;30.330;2023-12-14T08:08:37;15.20;;;5.18;;
81254;SDS011;70727;59.914;30.330;2023-12-14T08:11:03;14.25;;;5.35;;
81254;SDS011;70727;59.914;30.330;2023-12-14T08:13:30;16.02;;;6.03;;
81254;SDS011;70727;59.914;30.330;2023-12-14T08:15:55;13.18;;;6.28;;
81254;SDS011;70727;59.914;30.330;2023-12-14T08:18:21;13.18;;;5.25;;
81254;SDS011;70727;59.914;30.330;2023-12-14T08:20:47;17.13;;;6.53;;
81254;SDS011;70727;59.914;30.330;2023-12-14T08:23:13;15.30;;;6.97;;
81254;SDS011;70727;59.914;30.330;2023-12-14T08:25:38;15.23;;;5.40;;
81254;SDS011;70727;59.914;30.330;2023-12-14T08:28:05;11.93;;;6.57;;
81254;SDS011;70727;59.914;30.330;2023-12-14T08:30:31;15.48;;;6.60;;
81254;SDS011;70727;59.914;30.330;2023-12-14T08:32:56;15.43;;;7.30;;
81254;SDS011;70727;59.914;30.330;2023-12-14T08:35:22;13.85;;;6.90;;
81254;SDS011;70727;59.914;30.330;2023-12-14T08:37:48;16.20;;;5.95;;
81254;SDS011;70727;59.914;30.330;2023-12-14T08:40:14;13.82;;;6.13;;
81254;SDS011;70727;59.914;30.330;2023-12-14T08:42:40;13.55;;;5.93;;
81254;SDS011;70727;59.914;30.330;2023-12-14T08:45:07;14.77;;;6.07;;
81254;SDS011;70727;59.914;30.330;2023-12-14T08:47:33;11.77;;;5.30;;
81254;SDS011;70727;59.914;30.330;2023-12-14T08:49:59;15.98;;;5.07;;
81254;SDS011;70727;59.914;30.330;2023-12-14T08:52:25;16.38;;;7.88;;
81254;SDS011;70727;59.914;30.330;2023-12-14T08:54:51;15.88;;;6.68;;
81254;SDS011;70727;59.914;30.330;2023-12-14T08:57:17;14.30;;;6.50;;
81254;SDS011;70727;59.914;30.330;2023-12-14T08:59:42;14.52;;;6.65;;
81254;SDS011;70727;59.914;30.330;2023-12-14T09:02:08;18.10;;;7.38;;
81254;SDS011;70727;59.914;30.330;2023-12-14T09:04:34;16.35;;;5.90;;
81254;SDS011;70727;59.914;30.330;2023-12-14T09:07:01;14.40;;;7.03;;
81254;SDS011;70727;59.914;30.330;2023-12-14T09:09:27;11.93;;;6.00;;
81254;SDS011;70727;59.914;30.330;2023-12-14T09:11:53;17.30;;;6.82;;
81254;SDS011;70727;59.914;30.330;2023-12-14T09:14:19;14.48;;;6.00;;
81254;SDS011;70727;59.914;30.330;2023-12-14T09:16:46;20.45;;;6.78;;
81254;SDS011;70727;59.914;30.330;2023-12-14T09:19:11;17.13;;;6.80;;
81254;SDS011;70727;59.914;30.330;2023-12-14T09:21:37;14.15;;;7.32;;
81254;SDS011;70727;59.914;30.330;2023-12-14T09:24:03;14.13;;;5.97;;
81254;SDS011;70727;59.914;30.330;2023-12-14T09:26:29;13.98;;;5.63;;
81254;SDS011;70727;59.914;30.330;2023-12-14T09:28:54;15.25;;;5.70;;
81254;SDS011;70727;59.914;30.330;2023-12-14T09:31:20;15.98;;;7.60;;
81254;SDS011;70727;59.914;30.330;2023-12-14T09:33:46;17.40;;;6.07;;
81254;SDS011;70727;59.914;30.330;2023-12-14T09:36:12;11.68;;;5.45;;
81254;SDS011;70727;59.914;30.330;2023-12-14T09:38:38;15.30;;;7.03;;
81254;SDS011;70727;59.914;30.330;2023-12-14T09:41:04;15.20;;;6.38;;
81254;SDS011;70727;59.914;30.330;2023-12-14T09:43:30;17.50;;;6.70;;
81254;SDS011;70727;59.914;30.330;2023-12-14T09:45:55;20.05;;;7.13;;
81254;SDS011;70727;59.914;30.330;2023-12-14T09:48:21;18.02;;;7.05;;
81254;SDS011;70727;59.914;30.330;2023-12-14T09:50:48;17.42;;;7.28;;
81254;SDS011;70727;59.914;30.330;2023-12-14T09:53:14;16.92;;;6.15;;
81254;SDS011;70727;59.914;30.330;2023-12-14T09:55:39;18.05;;;7.07;;
81254;SDS011;70727;59.914;30.330;2023-12-14T09:58:05;16.00;;;7.40;;
81254;SDS011;70727;59.914;30.330;2023-12-14T10:00:32;14.50;;;7.68;;
81254;SDS011;70727;59.914;30.330;2023-12-14T10:03:15;18.83;;;7.97;;
81254;SDS011;70727;59.914;30.330;2023-12-14T10:05:42;15.43;;;8.13;;
81254;SDS011;70727;59.914;30.330;2023-12-14T10:08:08;17.15;;;8.45;;
81254;SDS011;70727;59.914;30.330;2023-12-14T10:10:34;20.52;;;7.70;;
81254;SDS011;70727;59.914;30.330;2023-12-14T10:13:00;16.30;;;7.93;;
81254;SDS011;70727;59.914;30.330;2023-12-14T10:15:26;16.63;;;9.63;;
81254;SDS011;70727;59.914;30.330;2023-12-14T10:17:52;19.20;;;8.65;;
81254;SDS011;70727;59.914;30.330;2023-12-14T10:20:20;16.20;;;8.02;;
81254;SDS011;70727;59.914;30.330;2023-12-14T10:22:47;15.93;;;6.55;;
81254;SDS011;70727;59.914;30.330;2023-12-14T10:25:14;21.50;;;8.77;;
81254;SDS011;70727;59.914;30.330;2023-12-14T10:27:40;18.02;;;7.53;;
81254;SDS011;70727;59.914;30.330;2023-12-14T10:30:06;19.35;;;7.72;;
81254;SDS011;70727;59.914;30.330;2023-12-14T10:32:33;14.30;;;7.38;;
81254;SDS011;70727;59.914;30.330;2023-12-14T10:34:59;18.77;;;8.27;;
81254;SDS011;70727;59.914;30.330;2023-12-14T10:37:26;17.88;;;7.95;;
81254;SDS011;70727;59.914;30.330;2023-12-14T10:39:52;17.02;;;7.70;;
81254;SDS011;70727;59.914;30.330;2023-12-14T10:42:19;19.98;;;7.78;;
81254;SDS011;70727;59.914;30.330;2023-12-14T10:44:46;16.23;;;5.75;;
81254;SDS011;70727;59.914;30.330;2023-12-14T10:47:13;19.85;;;7.93;;
81254;SDS011;70727;59.914;30.330;2023-12-14T10:49:40;18.15;;;7.60;;
81254;SDS011;70727;59.914;30.330;2023-12-14T10:52:09;16.05;;;6.88;;
81254;SDS011;70727;59.914;30.330;2023-12-14T10:54:35;19.75;;;6.90;;
81254;SDS011;70727;59.914;30.330;2023-12-14T10:57:02;17.48;;;7.20;;
81254;SDS011;70727;59.914;30.330;2023-12-14T10:59:30;16.02;;;7.22;;
81254;SDS011;70727;59.914;30.330;2023-12-14T11:01:56;19.92;;;7.68;;
81254;SDS011;70727;59.914;30.330;2023-12-14T11:04:26;15.27;;;6.15;;
81254;SDS011;70727;59.914;30.330;2023-12-14T11:06:56;16.02;;;5.45;;
81254;SDS011;70727;59.914;30.330;2023-12-14T11:09:22;13.90;;;5.65;;
81254;SDS011;70727;59.914;30.330;2023-12-14T11:11:55;14.43;;;5.30;;
81254;SDS011;70727;59.914;30.330;2023-12-14T11:14:28;15.73;;;6.13;;
81254;SDS011;70727;59.914;30.330;2023-12-14T11:17:01;18.85;;;6.93;;
81254;SDS011;70727;59.914;30.330;2023-12-14T11:19:29;13.93;;;4.97;;
81254;SDS011;70727;59.914;30.330;2023-12-14T11:24:21;18.05;;;5.28;;
81254;SDS011;70727;59.914;30.330;2023-12-14T11:26:50;15.43;;;6.53;;
81254;SDS011;70727;59.914;30.330;2023-12-14T11:29:19;22.27;;;7.03;;
81254;SDS011;70727;59.914;30.330;2023-12-14T11:31:46;15.57;;;6.50;;
81254;SDS011;70727;59.914;30.330;2023-12-14T11:34:11;17.48;;;5.32;;
81254;SDS011;70727;59.914;30.330;2023-12-14T11:36:37;16.95;;;5.22;;
81254;SDS011;70727;59.914;30.330;2023-12-14T11:39:07;12.50;;;5.43;;
81254;SDS011;70727;59.914;30.330;2023-12-14T11:41:33;10.98;;;4.53;;
81254;SDS011;70727;59.914;30.330;2023-12-14T11:43:59;15.10;;;4.57;;
81254;SDS011;70727;59.914;30.330;2023-12-14T11:46:25;15.93;;;6.13;;
81254;SDS011;70727;59.914;30.330;2023-12-14T11:48:51;13.20;;;4.65;;
81254;SDS011;70727;59.914;30.330;2023-12-14T11:51:17;16.40;;;4.82;;
81254;SDS011;70727;59.914;30.330;2023-12-14T11:53:49;15.60;;;5.15;;
81254;SDS011;70727;59.914;30.330;2023-12-14T11:56:18;13.18;;;4.93;;
81254;SDS011;70727;59.914;30.330;2023-12-14T11:58:45;13.70;;;4.65;;
81254;SDS011;70727;59.914;30.330;2023-12-14T12:01:14;19.15;;;5.90;;
81254;SDS011;70727;59.914;30.330;2023-12-14T12:03:40;16.30;;;4.38;;
81254;SDS011;70727;59.914;30.330;2023-12-14T12:06:06;14.05;;;5.82;;
81254;SDS011;70727;59.914;30.330;2023-12-14T12:08:33;15.18;;;5.38;;
81254;SDS011;70727;59.914;30.330;2023-12-14T12:11:05;17.00;;;6.82;;
81254;SDS011;70727;59.914;30.330;2023-12-14T12:13:34;14.18;;;5.60;;
81254;SDS011;70727;59.914;30.330;2023-12-14T12:15:59;16.35;;;6.15;;
81254;SDS011;70727;59.914;30.330;2023-12-14T12:18:25;16.38;;;5.43;;
81254;SDS011;70727;59.914;30.330;2023-12-14T12:20:51;21.38;;;5.38;;
81254;SDS011;70727;59.914;30.330;2023-12-14T12:23:18;14.40;;;4.07;;
81254;SDS011;70727;59.914;30.330;2023-12-14T12:25:44;17.23;;;5.63;;
81254;SDS011;70727;59.914;30.330;2023-12-14T12:28:10;12.85;;;5.13;;
81254;SDS011;70727;59.914;30.330;2023-12-14T12:30:36;18.67;;;6.15;;
81254;SDS011;70727;59.914;30.330;2023-12-14T12:33:01;12.90;;;5.43;;
81254;SDS011;70727;59.914;30.330;2023-12-14T12:35:27;16.45;;;6.00;;
81254;SDS011;70727;59.914;30.330;2023-12-14T12:37:56;16.33;;;5.78;;
81254;SDS011;70727;59.914;30.330;2023-12-14T12:40:22;20.35;;;5.88;;
81254;SDS011;70727;59.914;30.330;2023-12-14T12:43:22;22.92;;;5.97;;
81254;SDS011;70727;59.914;30.330;2023-12-14T12:45:48;17.98;;;6.00;;
81254;SDS011;70727;59.914;30.330;2023-12-14T12:48:16;20.20;;;7.35;;
81254;SDS011;70727;59.914;30.330;2023-12-14T12:50:42;14.80;;;6.00;;
81254;SDS011;70727;59.914;30.330;2023-12-14T12:53:08;14.20;;;5.15;;
81254;SDS011;70727;59.914;30.330;2023-12-14T12:55:34;18.33;;;5.78;;
81254;SDS011;70727;59.914;30.330;2023-12-14T12:58:00;25.48;;;7.80;;
81254;SDS011;70727;59.914;30.330;2023-12-14T13:00:30;18.98;;;8.60;;
81254;SDS011;70727;59.914;30.330;2023-12-14T13:02:56;21.40;;;7.75;;
81254;SDS011;70727;59.914;30.330;2023-12-14T13:05:22;17.58;;;8.40;;
81254;SDS011;70727;59.914;30.330;2023-12-14T13:07:50;22.25;;;9.25;;
81254;SDS011;70727;59.914;30.330;2023-12-14T13:10:16;21.08;;;8.43;;
81254;SDS011;70727;59.914;30.330;2023-12-14T13:12:44;21.85;;;8.95;;
81254;SDS011;70727;59.914;30.330;2023-12-14T13:15:10;24.02;;;9.20;;
81254;SDS011;70727;59.914;30.330;2023-12-14T13:17:36;26.73;;;10.95;;
81254;SDS011;70727;59.914;30.330;2023-12-14T13:20:02;22.52;;;8.95;;
81254;SDS011;70727;59.914;30.330;2023-12-14T13:22:28;22.38;;;8.15;;
81254;SDS011;70727;59.914;30.330;2023-12-14T13:24:57;22.98;;;8.80;;
81254;SDS011;70727;59.914;30.330;2023-12-14T13:27:48;23.95;;;8.38;;
81254;SDS011;70727;59.914;30.330;2023-12-14T13:30:22;19.67;;;8.82;;
81254;SDS011;70727;59.914;30.330;2023-12-14T13:33:26;20.67;;;8.05;;
81254;SDS011;70727;59.914;30.330;2023-12-14T13:38:59;22.88;;;9.40;;
81254;SDS011;70727;59.914;30.330;2023-12-14T13:41:27;21.55;;;8.88;;
81254;SDS011;70727;59.914;30.330;2023-12-14T13:43:53;20.70;;;9.18;;
81254;SDS011;70727;59.914;30.330;2023-12-14T13:46:19;22.60;;;8.18;;
81254;SDS011;70727;59.914;30.330;2023-12-14T13:48:45;27.33;;;9.82;;
81254;SDS011;70727;59.914;30.330;2023-12-14T13:51:11;25.27;;;7.78;;
81254;SDS011;70727;59.914;30.330;2023-12-14T13:53:37;25.23;;;7.75;;
81254;SDS011;70727;59.914;30.330;2023-12-14T13:56:04;23.90;;;7.85;;
81254;SDS011;70727;59.914;30.330;2023-12-14T13:58:30;24.13;;;8.30;;
81254;SDS011;70727;59.914;30.330;2023-12-14T14:01:00;22.00;;;9.15;;
81254;SDS011;70727;59.914;30.330;2023-12-14T14:03:26;27.63;;;9.38;;
81254;SDS011;70727;59.914;30.330;2023-12-14T14:05:53;25.10;;;8.40;;
81254;SDS011;70727;59.914;30.330;2023-12-14T14:08:19;15.70;;;6.97;;
81254;SDS011;70727;59.914;30.330;2023-12-14T14:10:46;24.33;;;9.00;;
81254;SDS011;70727;59.914;30.330;2023-12-14T14:13:12;23.15;;;8.55;;
81254;SDS011;70727;59.914;30.330;2023-12-14T14:15:38;21.45;;;8.00;;
81254;SDS011;70727;59.914;30.330;2023-12-14T14:18:04;21.52;;;7.22;;
81254;SDS011;70727;59.914;30.330;2023-12-14T14:20:30;21.65;;;7.78;;
81254;SDS011;70727;59.914;30.330;2023-12-14T14:22:56;18.77;;;7.70;;
81254;SDS011;70727;59.914;30.330;2023-12-14T14:25:25;18.75;;;6.88;;
81254;SDS011;70727;59.914;30.330;2023-12-14T14:27:51;26.40;;;8.45;;
81254;SDS011;70727;59.914;30.330;2023-12-14T14:30:17;20.38;;;7.20;;
81254;SDS011;70727;59.914;30.330;2023-12-14T14:32:44;20.60;;;6.72;;